createdAt,value
2023-06-29T00:00:16.033Z,27.00
2023-06-29T00:05:22.902Z,27.60
2023-06-29T00:10:26.707Z,27.20
2023-06-29T00:15:31.476Z,27.20
2023-06-29T00:20:36.954Z,27.50
2023-06-29T00:25:40.721Z,27.20
2023-06-29T00:30:45.452Z,27.40
2023-06-29T00:35:48.617Z,27.70
2023-06-29T00:40:53.667Z,27.40
2023-06-29T00:45:58.406Z,27.50
2023-06-29T00:51:01.607Z,27.80
2023-06-29T00:56:05.304Z,27.60
2023-06-29T01:01:09.936Z,27.70
2023-06-29T01:06:18.325Z,28.70
2023-06-29T01:11:23.333Z,28.10
2023-06-29T01:16:28.349Z,28.10
2023-06-29T01:21:33.253Z,28.00
2023-06-29T01:26:38.968Z,28.10
2023-06-29T01:31:42.161Z,28.10
2023-06-29T01:36:50.289Z,27.90
2023-06-29T01:41:56.637Z,28.20
2023-06-29T01:47:00.056Z,28.40
2023-06-29T01:52:03.430Z,28.10
2023-06-29T01:57:09.632Z,28.30
2023-06-29T02:02:13.010Z,28.60
2023-06-29T02:07:16.221Z,28.40
2023-06-29T02:12:20.846Z,28.20
2023-06-29T02:17:24.139Z,28.70
2023-06-29T02:22:27.484Z,28.40
2023-06-29T02:27:32.159Z,28.50
2023-06-29T02:32:35.398Z,28.80
2023-06-29T02:37:38.640Z,28.80
2023-06-29T02:42:43.646Z,28.70
2023-06-29T02:47:46.857Z,29.30
2023-06-29T02:52:50.168Z,29.10
2023-06-29T02:57:54.921Z,29.30
2023-06-29T03:02:58.184Z,29.70
2023-06-29T03:08:01.554Z,29.30
2023-06-29T03:13:06.224Z,29.50
2023-06-29T03:18:09.599Z,29.70
2023-06-29T03:23:12.992Z,29.50
2023-06-29T03:28:17.515Z,29.40
2023-06-29T03:33:20.746Z,29.70
2023-06-29T03:38:23.989Z,29.50
2023-06-29T03:43:28.649Z,29.60
2023-06-29T03:48:32.044Z,29.80
2023-06-29T03:53:35.324Z,29.80
2023-06-29T03:58:39.893Z,29.80
2023-06-29T04:03:43.144Z,30.20
2023-06-29T04:08:46.363Z,30.00
2023-06-29T04:13:50.944Z,30.40
2023-06-29T04:18:54.187Z,31.20
2023-06-29T04:23:57.534Z,31.00
2023-06-29T04:29:07.229Z,31.10
2023-06-29T04:34:10.476Z,32.80
2023-06-29T04:39:13.951Z,31.50
2023-06-29T04:44:18.432Z,31.90
2023-06-29T04:49:21.638Z,32.70
2023-06-29T04:54:24.878Z,32.20
2023-06-29T04:59:30.449Z,32.40
2023-06-29T05:04:33.661Z,33.90
2023-06-29T05:09:37.259Z,32.90
2023-06-29T05:14:41.820Z,33.30
2023-06-29T05:19:45.025Z,34.10
2023-06-29T05:24:48.451Z,33.60
2023-06-29T05:29:53.087Z,33.80
2023-06-29T05:34:56.312Z,34.60
2023-06-29T05:39:59.406Z,33.90
2023-06-29T05:45:04.240Z,34.00
2023-06-29T05:50:08.750Z,34.70
2023-06-29T05:55:12.131Z,34.70
2023-06-29T06:05:22.390Z,34.90
2023-06-29T06:10:25.622Z,34.10
2023-06-29T06:15:30.114Z,34.10
2023-06-29T06:20:33.222Z,34.70
2023-06-29T06:25:36.385Z,34.20
2023-06-29T06:30:41.040Z,34.20
2023-06-29T06:35:44.647Z,34.50
2023-06-29T06:40:48.425Z,33.70
2023-06-29T06:45:54.020Z,33.60
2023-06-29T06:50:57.168Z,33.80
2023-06-29T06:56:00.289Z,33.40
2023-06-29T07:01:04.848Z,33.40
2023-06-29T07:06:08.078Z,33.20
2023-06-29T07:11:11.326Z,33.00
2023-06-29T07:16:15.919Z,33.00
2023-06-29T07:21:21.662Z,33.20
2023-06-29T07:26:26.205Z,32.80
2023-06-29T07:31:32.097Z,32.70
2023-06-29T07:36:35.612Z,32.70
2023-06-29T07:41:39.233Z,32.40
2023-06-29T07:46:43.722Z,32.30
2023-06-29T07:51:46.856Z,32.10
2023-06-29T08:01:57.492Z,31.20
2023-06-29T08:07:00.838Z,30.60
2023-06-29T08:12:04.321Z,30.60
2023-06-29T08:17:09.035Z,29.70
2023-06-29T08:22:12.183Z,29.10
2023-06-29T08:27:15.391Z,29.00
2023-06-29T08:32:20.130Z,29.10
2023-06-29T08:37:23.302Z,27.10
2023-06-29T08:42:26.468Z,27.50
2023-06-29T08:47:33.653Z,26.90
2023-06-29T08:52:40.276Z,26.00
2023-06-29T08:57:43.898Z,26.30
2023-06-29T09:02:49.161Z,26.20
2023-06-29T09:07:52.585Z,24.90
2023-06-29T09:12:56.494Z,25.50
2023-06-29T09:18:01.690Z,25.10
2023-06-29T09:23:05.479Z,23.90
2023-06-29T09:28:09.514Z,24.20
2023-06-29T09:33:15.834Z,23.80
2023-06-29T09:38:19.250Z,22.80
2023-06-29T09:43:23.963Z,23.60
2023-06-29T09:53:35.283Z,22.30
2023-06-29T09:58:39.179Z,22.40
2023-06-29T10:03:44.249Z,22.30
2023-06-29T10:08:52.278Z,22.20
2023-06-29T10:14:02.666Z,22.20
2023-06-29T10:19:16.850Z,21.30
2023-06-29T10:24:23.475Z,20.70
2023-06-29T10:29:27.048Z,20.80
2023-06-29T10:34:31.648Z,20.80
2023-06-29T10:39:42.106Z,20.30
2023-06-29T10:44:49.053Z,20.00
2023-06-29T10:49:57.905Z,19.40
2023-06-29T10:55:15.576Z,19.20
2023-06-29T11:00:19.061Z,19.90
2023-06-29T11:05:24.410Z,20.30
2023-06-29T11:10:27.712Z,19.30
2023-06-29T11:15:30.922Z,19.40
2023-06-29T11:20:38.059Z,19.50
2023-06-29T11:25:41.188Z,17.90
2023-06-29T11:30:45.538Z,18.90
2023-06-29T11:35:51.896Z,18.40
2023-06-29T11:41:04.363Z,18.10
2023-06-29T11:46:07.836Z,17.10
2023-06-29T11:51:12.657Z,18.00
2023-06-29T11:56:25.469Z,17.70
2023-06-29T12:01:28.743Z,16.50
2023-06-29T12:06:33.484Z,17.30
2023-06-29T12:11:36.640Z,17.10
2023-06-29T12:21:48.542Z,17.50
2023-06-29T12:26:52.159Z,16.70
2023-06-29T12:32:00.780Z,17.00
2023-06-29T12:37:05.439Z,15.90
2023-06-29T12:42:09.005Z,16.20
2023-06-29T12:47:12.297Z,16.50
2023-06-29T12:52:17.605Z,16.40
2023-06-29T12:57:26.904Z,15.70
2023-06-29T13:02:31.859Z,16.30
2023-06-29T13:07:37.166Z,16.00
2023-06-29T13:12:42.069Z,15.60
2023-06-29T13:17:45.365Z,15.70
2023-06-29T13:22:49.962Z,15.70
2023-06-29T13:27:53.495Z,15.20
2023-06-29T13:32:56.669Z,15.60
2023-06-29T13:38:01.206Z,15.70
2023-06-29T13:43:04.314Z,14.40
2023-06-29T13:48:07.838Z,14.40
2023-06-29T13:53:12.444Z,14.80
2023-06-29T13:58:15.882Z,14.30
2023-06-29T14:03:19.162Z,14.90
2023-06-29T14:08:25.613Z,14.80
2023-06-29T14:13:29.209Z,14.20
2023-06-29T14:18:32.608Z,14.60
2023-06-29T14:23:38.108Z,14.80
2023-06-29T14:28:41.347Z,14.20
2023-06-29T14:33:44.648Z,14.60
2023-06-29T14:38:50.514Z,14.30
2023-06-29T14:43:54.409Z,13.90
2023-06-29T14:48:57.535Z,14.40
2023-06-29T14:54:02.060Z,14.00
2023-06-29T14:59:05.383Z,13.70
2023-06-29T15:04:09.071Z,13.80
2023-06-29T15:09:13.549Z,13.60
2023-06-29T15:14:16.769Z,13.30
2023-06-29T15:19:19.878Z,13.50
2023-06-29T15:24:24.337Z,13.50
2023-06-29T15:29:27.856Z,13.40
2023-06-29T15:34:31.081Z,13.20
2023-06-29T15:39:36.422Z,13.30
2023-06-29T15:44:39.991Z,13.10
2023-06-29T15:49:43.482Z,13.60
2023-06-29T15:54:48.009Z,13.30
2023-06-29T15:59:51.140Z,13.30
2023-06-29T16:04:54.436Z,13.60
2023-06-29T16:09:59.065Z,13.80
2023-06-29T16:15:02.254Z,13.50
2023-06-29T16:20:06.233Z,14.10
2023-06-29T16:25:11.224Z,13.90
2023-06-29T16:30:14.614Z,14.10
2023-06-29T16:35:18.065Z,13.80
2023-06-29T16:40:22.639Z,13.70
2023-06-29T16:45:26.804Z,13.50
2023-06-29T16:50:29.984Z,14.00
2023-06-29T16:55:34.656Z,13.60
2023-06-29T17:00:37.786Z,13.60
2023-06-29T17:05:40.997Z,13.90
2023-06-29T17:10:45.579Z,14.30
2023-06-29T17:15:49.124Z,14.30
2023-06-29T17:20:52.580Z,14.40
2023-06-29T17:25:57.097Z,14.80
2023-06-29T17:31:00.354Z,14.70
2023-06-29T17:36:05.886Z,14.50
2023-06-29T17:41:12.485Z,14.40
2023-06-29T17:46:15.829Z,14.60
2023-06-29T17:51:20.689Z,15.10
2023-06-29T17:56:25.285Z,15.20
2023-06-29T18:01:28.562Z,15.60
2023-06-29T18:06:31.670Z,15.70
2023-06-29T18:11:36.376Z,16.00
2023-06-29T18:16:40.375Z,16.50
2023-06-29T18:21:43.759Z,16.40
2023-06-29T18:26:50.119Z,16.70
2023-06-29T18:31:53.583Z,16.90
2023-06-29T18:36:57.535Z,16.60
2023-06-29T18:42:02.209Z,17.10
2023-06-29T18:47:07.396Z,17.00
2023-06-29T18:52:10.911Z,16.80
2023-06-29T18:57:15.633Z,17.00
2023-06-29T19:02:19.351Z,17.30
2023-06-29T19:07:22.780Z,17.20
2023-06-29T19:12:27.628Z,17.60
2023-06-29T19:17:30.930Z,18.10
2023-06-29T19:22:34.355Z,18.10
2023-06-29T19:27:38.917Z,18.10
2023-06-29T19:32:42.201Z,18.50
2023-06-29T19:37:45.490Z,18.20
2023-06-29T19:42:50.857Z,18.30
2023-06-29T19:47:54.050Z,19.00
2023-06-29T19:52:57.400Z,19.10
2023-06-29T19:58:02.086Z,19.20
2023-06-29T20:03:06.072Z,20.00
2023-06-29T20:08:09.484Z,20.00
2023-06-29T20:13:14.093Z,20.00
2023-06-29T20:18:17.416Z,20.00
2023-06-29T20:23:22.307Z,20.00
2023-06-29T20:28:27.048Z,19.90
2023-06-29T20:33:30.287Z,20.70
2023-06-29T20:38:33.581Z,20.70
2023-06-29T20:43:38.123Z,20.70
2023-06-29T20:48:41.330Z,21.20
2023-06-29T20:53:45.166Z,21.00
2023-06-29T20:58:49.959Z,21.20
2023-06-29T21:03:53.249Z,21.30
2023-06-29T21:08:56.662Z,21.20
2023-06-29T21:14:01.583Z,21.40
2023-06-29T21:19:05.325Z,22.40
2023-06-29T21:24:09.520Z,22.50
2023-06-29T21:29:33.325Z,22.80
2023-06-29T21:34:38.628Z,23.60
2023-06-29T21:39:41.897Z,23.30
2023-06-29T21:44:47.222Z,23.50
2023-06-29T21:49:50.506Z,24.50
2023-06-29T21:54:53.785Z,24.50
2023-06-29T21:59:58.344Z,25.20
2023-06-29T22:05:01.718Z,26.20
2023-06-29T22:10:05.079Z,25.60
2023-06-29T22:15:11.495Z,25.70
2023-06-29T22:20:16.325Z,26.90
2023-06-29T22:25:19.581Z,26.80
2023-06-29T22:30:24.241Z,26.60
2023-06-29T22:35:27.504Z,27.40
2023-06-29T22:40:30.796Z,27.20
2023-06-29T22:45:35.515Z,26.50
2023-06-29T22:50:39.585Z,27.30
2023-06-29T22:55:43.294Z,27.20
2023-06-29T23:00:48.032Z,27.60
2023-06-29T23:05:51.525Z,28.40
2023-06-29T23:10:54.756Z,27.80
2023-06-29T23:16:01.032Z,27.80
2023-06-29T23:21:04.303Z,27.80
2023-06-29T23:26:09.184Z,27.20
2023-06-29T23:31:13.890Z,27.20
2023-06-29T23:36:22.051Z,27.60
2023-06-29T23:41:29.157Z,27.30
2023-06-29T23:46:45.572Z,27.40
2023-06-29T23:51:49.542Z,27.80
2023-06-29T23:56:53.168Z,27.10
